Time;durP1;ratioP1;P1;durP2;ratioP2;P2;SDS_P1;SDS_P2;PMS_P1;PMS_P2;Temp;Humidity;BMP_temperature;BMP_pressure;BME280_temperature;BME280_humidity;BME280_pressure;Samples;Min_cycle;Max_cycle;Signal;HPM_P1;HPM_P2
2021/12/30 00:00:57;;;;;;;32.42;7.07;;;;;;;10.43;81.77;101051.56;5084706;28;20048;-65
2021/12/30 00:03:25;;;;;;;29.90;6.80;;;;;;;10.38;81.98;101059.47;5085614;28;20067;-65
2021/12/30 00:05:53;;;;;;;32.92;6.80;;;;;;;10.43;81.86;101065.00;5085054;28;20064;-65
2021/12/30 00:08:21;;;;;;;25.17;6.90;;;;;;;10.43;82.06;101068.50;5082847;28;20079;-65
2021/12/30 00:10:50;;;;;;;30.00;6.50;;;;;;;10.43;81.79;101068.50;5085337;28;20072;-65
2021/12/30 00:13:18;;;;;;;23.33;6.25;;;;;;;10.43;81.96;101075.72;5084936;28;20372;-65
2021/12/30 00:15:47;;;;;;;29.85;6.20;;;;;;;10.42;81.60;101066.84;5085147;28;20104;-65
2021/12/30 00:18:15;;;;;;;29.73;7.82;;;;;;;10.43;81.71;101081.09;5085032;28;20051;-65
2021/12/30 00:20:44;;;;;;;29.92;8.20;;;;;;;10.42;81.80;101074.09;5084765;28;20060;-64
2021/12/30 00:23:12;;;;;;;24.42;6.50;;;;;;;10.43;81.43;101075.72;5084447;28;20166;-64
2021/12/30 00:25:41;;;;;;;28.55;6.72;;;;;;;10.43;81.70;101073.06;5077018;28;20072;-65
2021/12/30 00:28:13;;;;;;;25.38;6.60;;;;;;;10.41;81.65;101065.19;5084568;28;20049;-64
2021/12/30 00:30:42;;;;;;;22.35;5.47;;;;;;;10.43;81.71;101081.09;5084883;28;20087;-65
2021/12/30 00:33:12;;;;;;;19.63;5.80;;;;;;;10.41;81.63;101075.13;5085091;28;20051;-65
2021/12/30 00:35:45;;;;;;;28.85;6.88;;;;;;;10.42;81.75;101066.03;5084592;28;20048;-64
2021/12/30 00:38:13;;;;;;;31.00;6.68;;;;;;;10.40;81.46;101062.75;5084436;28;20457;-65
2021/12/30 00:40:41;;;;;;;29.70;7.60;;;;;;;10.42;81.57;101087.53;5084497;28;20063;-65
2021/12/30 00:43:09;;;;;;;23.60;6.28;;;;;;;10.41;81.30;101080.50;5080030;28;20037;-65
2021/12/30 00:45:37;;;;;;;23.42;7.13;;;;;;;10.38;81.33;101081.78;5075709;28;20053;-65
2021/12/30 00:48:06;;;;;;;22.40;7.68;;;;;;;10.41;81.65;101088.56;5084603;28;20045;-65
2021/12/30 00:50:36;;;;;;;23.48;6.32;;;;;;;10.42;81.12;101100.97;5084117;28;20080;-64
2021/12/30 00:53:05;;;;;;;21.77;6.00;;;;;;;10.41;81.09;101093.94;5077771;28;20042;-64
2021/12/30 00:55:34;;;;;;;24.52;5.68;;;;;;;10.42;81.31;101096.41;5070161;28;20561;-65
2021/12/30 00:58:02;;;;;;;25.67;6.30;;;;;;;10.42;81.24;101107.16;5084046;28;20052;-65
2021/12/30 01:00:32;;;;;;;28.05;6.47;;;;;;;10.42;81.03;101104.47;5084114;28;20077;-65
2021/12/30 01:03:00;;;;;;;20.60;5.43;;;;;;;10.43;81.02;101100.75;5084323;28;20104;-65
2021/12/30 01:05:28;;;;;;;21.05;5.78;;;;;;;10.43;81.06;101099.91;5083784;28;20052;-65
2021/12/30 01:07:57;;;;;;;19.92;5.50;;;;;;;10.41;81.43;101102.81;5082865;28;20052;-65
2021/12/30 01:10:28;;;;;;;26.63;6.00;;;;;;;10.44;81.26;101112.31;5083091;28;20087;-65
2021/12/30 01:13:05;;;;;;;28.00;6.43;;;;;;;10.45;81.19;101103.22;5083395;28;20528;-64
2021/12/30 01:15:46;;;;;;;20.83;5.55;;;;;;;10.44;81.21;101096.19;5083980;28;20067;-65
2021/12/30 01:18:27;;;;;;;20.17;5.65;;;;;;;10.46;81.21;101109.41;5084177;28;20173;-65
2021/12/30 01:20:55;;;;;;;22.00;5.53;;;;;;;10.47;81.21;101111.06;5083513;28;20055;-65
2021/12/30 01:23:26;;;;;;;21.88;5.93;;;;;;;10.48;81.03;101107.34;5083150;28;20059;-65
2021/12/30 01:25:55;;;;;;;20.08;4.40;;;;;;;10.49;81.18;101122.41;5078394;28;20045;-64
2021/12/30 01:28:24;;;;;;;19.13;4.60;;;;;;;10.48;81.04;101116.22;5083537;28;20048;-65
2021/12/30 01:30:53;;;;;;;21.13;5.40;;;;;;;10.49;80.92;101109.81;5083646;28;20113;-65
2021/12/30 01:33:20;;;;;;;22.35;5.18;;;;;;;10.46;80.93;101118.31;5083765;28;20052;-65
2021/12/30 01:35:48;;;;;;;18.33;4.82;;;;;;;10.50;81.24;101114.13;5083197;28;20080;-65
2021/12/30 01:38:16;;;;;;;24.15;5.00;;;;;;;10.51;81.42;101126.53;5083252;28;20076;-65
2021/12/30 01:40:49;;;;;;;17.92;4.78;;;;;;;10.52;81.26;101114.75;5083158;28;20293;-65
2021/12/30 01:43:17;;;;;;;18.45;4.82;;;;;;;10.52;81.33;101125.50;5077422;28;20120;-65
2021/12/30 01:45:45;;;;;;;18.92;4.28;;;;;;;10.53;81.14;101126.31;5075701;28;20072;-65
2021/12/30 01:48:14;;;;;;;23.20;4.97;;;;;;;10.53;81.12;101112.88;5083174;28;20064;-64
2021/12/30 01:50:42;;;;;;;23.60;4.88;;;;;;;10.53;81.20;101112.88;5082966;28;20083;-64
2021/12/30 01:53:11;;;;;;;21.25;4.00;;;;;;;10.53;81.16;101102.13;5075106;28;20065;-65
2021/12/30 01:55:41;;;;;;;28.88;8.57;;;;;;;10.53;81.40;101116.41;5070728;28;20056;-65
2021/12/30 01:58:12;;;;;;;21.55;5.60;;;;;;;10.53;81.25;101116.41;5082967;28;20059;-65
2021/12/30 02:00:42;;;;;;;16.67;4.78;;;;;;;10.53;81.34;101123.63;5083001;28;20092;-65
2021/12/30 02:03:10;;;;;;;20.23;4.03;;;;;;;10.53;81.32;101124.47;5083235;28;20083;-65
2021/12/30 02:05:39;;;;;;;13.60;4.38;;;;;;;10.54;81.13;101117.22;5082708;28;20146;-65
2021/12/30 02:08:08;;;;;;;18.77;4.10;;;;;;;10.47;81.39;101101.13;5081610;28;20083;-65
2021/12/30 02:10:36;;;;;;;17.08;3.90;;;;;;;10.55;81.39;101116.19;5082431;28;20052;-64
2021/12/30 02:13:03;;;;;;;15.32;3.72;;;;;;;10.56;81.11;101117.84;5082618;28;20075;-64
2021/12/30 02:15:32;;;;;;;18.52;5.18;;;;;;;10.56;81.35;101123.22;5082842;28;20083;-65
2021/12/30 02:18:04;;;;;;;14.55;4.72;;;;;;;10.56;81.23;101118.66;5082915;28;20053;-64
2021/12/30 02:20:45;;;;;;;15.57;4.00;;;;;;;10.56;81.22;101115.97;5081947;28;20044;-64
2021/12/30 02:23:15;;;;;;;15.50;4.15;;;;;;;10.57;81.22;101122.16;5081967;28;20049;-65
2021/12/30 02:25:43;;;;;;;17.95;4.78;;;;;;;10.58;81.33;101113.06;5077356;28;20072;-65
2021/12/30 02:28:14;;;;;;;18.15;5.78;;;;;;;10.57;81.41;101114.94;5082334;28;20044;-64
2021/12/30 02:30:43;;;;;;;14.05;4.63;;;;;;;10.58;81.05;101105.00;5082525;28;20053;-65
2021/12/30 02:33:12;;;;;;;20.00;3.85;;;;;;;10.58;81.11;101118.44;5082728;28;20150;-64
2021/12/30 02:35:40;;;;;;;15.20;4.40;;;;;;;10.59;81.07;101112.03;5082190;28;20052;-65
2021/12/30 02:38:10;;;;;;;14.95;4.75;;;;;;;10.58;81.04;101113.06;5082525;28;20063;-64
2021/12/30 02:40:45;;;;;;;18.48;5.30;;;;;;;10.58;81.20;101113.88;5082062;28;20083;-65
2021/12/30 02:43:16;;;;;;;14.05;3.45;;;;;;;10.59;81.03;101117.41;5076867;28;20037;-65
2021/12/30 02:45:44;;;;;;;17.70;4.57;;;;;;;10.58;80.79;101113.88;5074947;28;20045;-65
2021/12/30 02:48:14;;;;;;;18.42;4.15;;;;;;;10.59;81.05;101117.41;5082485;28;20049;-65
2021/12/30 02:50:42;;;;;;;14.57;4.05;;;;;;;10.60;81.30;101116.38;5082124;28;20572;-65
2021/12/30 02:53:12;;;;;;;18.27;4.57;;;;;;;10.57;80.77;101106.88;5074447;28;20045;-65
2021/12/30 02:55:40;;;;;;;15.55;3.90;;;;;;;10.62;81.01;101116.97;5069951;28;20076;-65
2021/12/30 02:58:08;;;;;;;16.02;4.32;;;;;;;10.62;81.08;101100.84;5081821;28;20597;-65
2021/12/30 03:00:37;;;;;;;13.82;4.18;;;;;;;10.63;81.04;101115.94;5081891;28;20045;-65
2021/12/30 03:03:06;;;;;;;17.92;4.38;;;;;;;10.63;81.22;101111.38;5082447;28;20087;-65
2021/12/30 03:05:34;;;;;;;13.63;3.65;;;;;;;10.65;81.25;101112.00;5081902;28;20052;-65
2021/12/30 03:08:02;;;;;;;13.45;3.58;;;;;;;10.66;81.25;101112.81;5081127;28;20079;-65
2021/12/30 03:10:31;;;;;;;11.57;3.92;;;;;;;10.66;81.25;101116.31;5081767;28;20091;-65
2021/12/30 03:13:05;;;;;;;11.55;3.95;;;;;;;10.66;81.27;101108.25;5081953;28;20044;-65
2021/12/30 03:15:33;;;;;;;15.57;4.18;;;;;;;10.67;81.35;101125.22;5082183;28;20084;-65
2021/12/30 03:18:01;;;;;;;11.25;3.22;;;;;;;10.68;81.15;101130.38;5082040;28;20180;-65
2021/12/30 03:20:32;;;;;;;13.10;3.63;;;;;;;10.68;81.35;101133.06;5081446;28;20063;-65
2021/12/30 03:23:00;;;;;;;8.93;3.38;;;;;;;10.68;81.60;101130.38;5081650;28;20083;-65
2021/12/30 03:25:28;;;;;;;12.82;5.20;;;;;;;10.69;81.25;101137.41;5075703;28;20139;-64
2021/12/30 03:27:58;;;;;;;10.73;3.55;;;;;;;10.70;81.42;101127.47;5081291;28;20083;-65
2021/12/30 03:30:26;;;;;;;11.55;3.75;;;;;;;10.70;81.51;101135.53;5081931;28;20130;-65
2021/12/30 03:32:54;;;;;;;7.97;3.20;;;;;;;10.71;81.42;101135.31;5082141;28;20055;-65
2021/12/30 03:35:22;;;;;;;8.35;3.05;;;;;;;10.71;81.53;101137.19;5056866;28;20095;-65
2021/12/30 03:37:49;;;;;;;8.88;3.67;;;;;;;10.72;81.51;101133.47;5085777;28;20076;-65
2021/12/30 03:40:18;;;;;;;11.50;2.92;;;;;;;10.73;81.54;101121.66;5085619;28;20110;-65
2021/12/30 03:42:46;;;;;;;7.03;2.67;;;;;;;10.73;81.62;101137.78;5084487;28;20049;-65
2021/12/30 03:45:16;;;;;;;7.03;2.90;;;;;;;10.73;81.50;101127.88;5073343;28;20455;-65
2021/12/30 03:47:47;;;;;;;8.55;2.65;;;;;;;10.73;81.76;101127.88;5085665;28;20135;-65
2021/12/30 03:50:21;;;;;;;9.25;3.17;;;;;;;10.75;81.62;101135.72;5085219;28;20056;-65
2021/12/30 03:52:51;;;;;;;10.23;3.25;;;;;;;10.76;81.71;101123.91;5083536;28;20052;-65
2021/12/30 03:55:21;;;;;;;7.18;2.63;;;;;;;10.76;81.67;101134.69;5067664;28;20076;-65
2021/12/30 03:57:50;;;;;;;7.70;3.25;;;;;;;10.77;81.90;101126.41;5085322;28;20116;-65
2021/12/30 04:00:20;;;;;;;7.00;2.33;;;;;;;10.79;81.76;101122.66;5085440;28;20093;-64
2021/12/30 04:02:48;;;;;;;6.70;2.28;;;;;;;10.79;82.14;101128.88;5085498;28;20072;-65
2021/12/30 04:05:17;;;;;;;4.45;2.20;;;;;;;10.80;82.35;101127.00;5085005;28;20074;-65
2021/12/30 04:07:44;;;;;;;5.90;3.08;;;;;;;10.81;82.31;101125.97;5083948;28;20068;-64
2021/12/30 04:10:14;;;;;;;6.07;2.50;;;;;;;10.82;82.64;101138.38;5085170;28;20076;-65
2021/12/30 04:12:42;;;;;;;5.05;2.28;;;;;;;10.83;82.49;101145.38;5084771;28;20052;-65
2021/12/30 04:15:10;;;;;;;3.22;2.03;;;;;;;10.80;82.68;101127.81;5085053;28;20052;-65
2021/12/30 04:17:39;;;;;;;5.18;2.33;;;;;;;10.85;82.87;101125.31;5085214;28;20103;-65
2021/12/30 04:20:10;;;;;;;5.28;2.22;;;;;;;10.86;82.85;101131.50;5084423;28;20044;-65
2021/12/30 04:22:39;;;;;;;4.32;2.13;;;;;;;10.87;83.15;101135.84;5084879;28;20052;-65
2021/12/30 04:25:10;;;;;;;4.80;1.92;;;;;;;10.88;83.07;101140.19;5077324;28;20045;-65
2021/12/30 04:27:38;;;;;;;5.07;2.08;;;;;;;10.90;82.98;101140.78;5084692;28;20076;-65
2021/12/30 04:30:08;;;;;;;2.92;1.85;;;;;;;10.92;83.10;101144.09;5084785;28;20079;-65
2021/12/30 04:32:36;;;;;;;2.92;1.83;;;;;;;10.92;83.01;101152.97;5085143;28;20080;-65
2021/12/30 04:35:08;;;;;;;4.30;1.77;;;;;;;10.93;83.35;101149.25;5084472;28;20048;-65
2021/12/30 04:37:36;;;;;;;3.58;1.98;;;;;;;10.94;83.35;101169.72;5084836;28;20128;-64
2021/12/30 04:40:05;;;;;;;4.82;2.15;;;;;;;10.95;83.45;101155.25;5084426;28;20052;-64
2021/12/30 04:42:33;;;;;;;2.80;1.83;;;;;;;10.92;83.24;101141.41;5084117;28;20174;-65
2021/12/30 04:45:01;;;;;;;3.50;1.75;;;;;;;10.96;83.37;101153.38;5070714;28;20063;-64
2021/12/30 04:47:28;;;;;;;3.58;1.98;;;;;;;10.96;83.52;101164.13;5084619;28;20553;-65
2021/12/30 04:49:57;;;;;;;2.47;1.92;;;;;;;10.96;83.30;101164.13;5084433;28;20055;-65
2021/12/30 04:52:27;;;;;;;3.72;1.88;;;;;;;10.96;83.25;101166.81;5084402;28;20140;-65
2021/12/30 04:54:54;;;;;;;4.07;1.88;;;;;;;10.97;83.28;101158.53;5063154;28;20076;-65
2021/12/30 04:57:22;;;;;;;3.92;1.98;;;;;;;10.97;83.28;101163.09;5083741;28;20521;-65
2021/12/30 04:59:50;;;;;;;2.95;2.00;;;;;;;10.98;83.21;101168.25;5084259;28;20714;-65
2021/12/30 05:02:18;;;;;;;3.65;1.90;;;;;;;10.98;83.12;101167.44;5084330;28;20064;-65
2021/12/30 05:04:46;;;;;;;2.72;1.58;;;;;;;10.98;83.15;101167.44;5083734;28;20461;-65
2021/12/30 05:07:13;;;;;;;3.03;1.90;;;;;;;10.99;83.15;101166.38;5083851;28;20052;-65
2021/12/30 05:09:42;;;;;;;2.92;1.60;;;;;;;10.98;83.27;101162.88;5083693;28;20045;-65
2021/12/30 05:12:10;;;;;;;2.53;2.00;;;;;;;10.99;83.05;101161.00;5083431;28;20051;-65
2021/12/30 05:14:38;;;;;;;4.10;1.75;;;;;;;11.00;82.95;101163.47;5084033;28;20505;-65
2021/12/30 05:17:05;;;;;;;1.90;1.70;;;;;;;11.01;83.12;101167.81;5083750;28;20068;-65
2021/12/30 05:19:33;;;;;;;2.60;1.70;;;;;;;11.01;83.23;101178.56;5084213;28;20088;-65
2021/12/30 05:22:01;;;;;;;3.80;2.13;;;;;;;11.02;83.08;101174.03;5083233;28;20361;-65
2021/12/30 05:24:28;;;;;;;3.03;2.00;;;;;;;11.02;83.23;101182.91;5083195;28;20501;-64
2021/12/30 05:26:57;;;;;;;1.70;1.40;;;;;;;11.03;83.16;101181.06;5079665;28;20084;-65
2021/12/30 05:29:25;;;;;;;2.67;1.70;;;;;;;11.04;83.29;101186.22;5083567;28;20059;-65
2021/12/30 05:31:53;;;;;;;3.25;1.80;;;;;;;11.05;83.27;101187.88;5083505;28;20502;-65
2021/12/30 05:34:20;;;;;;;3.33;2.08;;;;;;;11.05;83.28;101187.88;5083677;28;20486;-65
2021/12/30 05:36:48;;;;;;;4.22;1.83;;;;;;;11.07;83.31;101204.59;5083097;28;20095;-64
2021/12/30 05:39:16;;;;;;;2.03;1.23;;;;;;;11.07;83.64;101220.75;5083425;28;20059;-65
2021/12/30 05:41:43;;;;;;;4.35;2.17;;;;;;;11.08;83.59;101217.03;5082497;28;20056;-65
2021/12/30 05:44:12;;;;;;;1.50;1.40;;;;;;;11.10;83.67;101216.81;5070565;28;20099;-65
2021/12/30 05:46:40;;;;;;;1.88;1.33;;;;;;;11.09;83.75;101210.59;5056408;28;20091;-65
2021/12/30 05:49:08;;;;;;;1.77;1.40;;;;;;;11.10;83.77;101216.81;5083476;28;20293;-65
2021/12/30 05:51:35;;;;;;;2.00;1.05;;;;;;;11.11;83.74;101214.94;5056410;28;20063;-65
2021/12/30 05:54:03;;;;;;;2.45;1.38;;;;;;;11.13;83.67;101218.22;5061098;28;20056;-65
2021/12/30 05:56:31;;;;;;;1.17;1.10;;;;;;;11.12;83.90;101227.34;5082663;28;20052;-65
2021/12/30 05:58:59;;;;;;;1.77;1.27;;;;;;;11.13;83.63;101231.69;5082792;28;20079;-65
2021/12/30 06:01:28;;;;;;;1.17;1.00;;;;;;;11.13;83.87;101237.88;5083045;28;20056;-65
2021/12/30 06:03:56;;;;;;;1.10;1.00;;;;;;;11.14;83.97;101226.09;5083196;28;20111;-65
2021/12/30 06:06:24;;;;;;;2.15;1.30;;;;;;;11.12;84.00;101217.41;5082615;28;20059;-65
2021/12/30 06:08:53;;;;;;;2.38;1.20;;;;;;;11.13;84.10;101215.53;5081168;28;20136;-65
2021/12/30 06:11:20;;;;;;;1.83;1.13;;;;;;;11.17;84.25;101222.16;5082041;28;20087;-65
2021/12/30 06:13:48;;;;;;;1.70;1.38;;;;;;;11.18;84.17;101221.09;5082799;28;20087;-65
2021/12/30 06:16:16;;;;;;;1.63;1.50;;;;;;;11.18;84.06;101210.34;5082644;28;20094;-64
2021/12/30 06:18:45;;;;;;;2.25;1.30;;;;;;;11.18;84.11;101213.84;5082959;28;20135;-65
2021/12/30 06:21:13;;;;;;;1.70;1.55;;;;;;;11.19;84.15;101231.66;5082023;28;20056;-64
2021/12/30 06:23:40;;;;;;;1.60;1.50;;;;;;;11.20;84.30;101230.59;5082144;28;20088;-65
2021/12/30 06:26:08;;;;;;;2.83;1.55;;;;;;;11.22;84.47;101235.78;5075620;28;20056;-65
2021/12/30 06:28:36;;;;;;;1.85;1.67;;;;;;;11.22;84.42;101227.69;5082733;28;20045;-65
2021/12/30 06:31:04;;;;;;;4.30;1.73;;;;;;;11.24;84.31;101233.69;5082480;28;20446;-65
2021/12/30 06:33:31;;;;;;;1.50;1.40;;;;;;;11.24;84.23;101231.00;5082739;28;20079;-65
2021/12/30 06:36:00;;;;;;;2.55;1.63;;;;;;;11.25;84.36;101227.25;5082140;28;20045;-65
2021/12/30 06:38:28;;;;;;;1.60;1.40;;;;;;;11.26;84.27;101232.44;5082314;28;20056;-65
2021/12/30 06:40:56;;;;;;;1.85;1.60;;;;;;;11.27;84.13;101230.56;5082058;28;20048;-65
2021/12/30 06:43:23;;;;;;;1.70;1.50;;;;;;;11.26;84.28;101227.03;5075686;28;20092;-65
2021/12/30 06:45:51;;;;;;;2.20;1.80;;;;;;;11.27;84.41;101234.06;5075421;28;20083;-65
2021/12/30 06:48:19;;;;;;;1.60;1.50;;;;;;;11.26;84.32;101232.44;5055878;28;20071;-65
2021/12/30 06:50:52;;;;;;;1.77;1.60;;;;;;;11.27;84.14;101228.69;5081923;28;20044;-64
2021/12/30 06:53:21;;;;;;;2.28;1.63;;;;;;;11.28;84.03;101246.50;5072170;28;20049;-65
2021/12/30 06:55:51;;;;;;;2.53;1.75;;;;;;;11.29;84.26;101241.94;5072054;28;20091;-65
2021/12/30 06:58:19;;;;;;;1.58;1.48;;;;;;;11.29;84.27;101241.94;5082167;28;20244;-65
2021/12/30 07:00:48;;;;;;;2.20;1.50;;;;;;;11.30;84.13;101254.34;5082107;28;20336;-65
2021/12/30 07:03:16;;;;;;;1.65;1.35;;;;;;;11.31;84.22;101254.13;5082419;28;20053;-65
2021/12/30 07:05:44;;;;;;;2.55;1.60;;;;;;;11.31;84.29;101264.91;5081476;28;20068;-64
2021/12/30 07:08:12;;;;;;;1.95;1.38;;;;;;;11.32;84.35;101271.09;5081315;28;20116;-64
2021/12/30 07:10:45;;;;;;;4.05;1.60;;;;;;;11.32;84.65;101269.22;5085599;28;20102;-64
2021/12/30 07:13:13;;;;;;;1.98;1.52;;;;;;;11.33;84.76;101278.13;5086073;28;20048;-64
2021/12/30 07:15:40;;;;;;;2.50;1.73;;;;;;;11.34;84.69;101269.00;5086089;28;20079;-65
2021/12/30 07:18:08;;;;;;;2.53;1.70;;;;;;;11.34;84.98;101267.16;5086511;28;20059;-65
2021/12/30 07:20:36;;;;;;;1.98;1.60;;;;;;;11.35;84.51;101274.19;5085674;28;20367;-64
2021/12/30 07:23:04;;;;;;;1.73;1.42;;;;;;;11.36;84.45;101281.22;5086108;28;20437;-64
2021/12/30 07:25:32;;;;;;;2.45;1.92;;;;;;;11.35;84.82;101287.63;5079216;28;20072;-64
2021/12/30 07:28:03;;;;;;;3.03;1.88;;;;;;;11.36;84.64;101291.97;5085879;28;20510;-64
2021/12/30 07:30:32;;;;;;;3.65;1.77;;;;;;;11.38;84.66;101289.06;5085932;28;20052;-64
2021/12/30 07:33:01;;;;;;;2.58;1.85;;;;;;;11.38;84.59;101292.59;5085977;28;20047;-64
2021/12/30 07:35:28;;;;;;;3.83;1.70;;;;;;;11.39;84.61;101317.63;5085337;28;20430;-64
2021/12/30 07:37:56;;;;;;;5.25;1.85;;;;;;;11.38;84.50;101306.03;5085705;28;20083;-64
2021/12/30 07:40:24;;;;;;;2.95;1.92;;;;;;;11.40;84.67;101308.53;5085221;28;20095;-64
2021/12/30 07:42:52;;;;;;;2.47;1.60;;;;;;;11.42;84.68;101306.44;5083617;28;20084;-64
2021/12/30 07:45:21;;;;;;;3.95;2.20;;;;;;;11.43;84.69;101316.16;5074553;28;20076;-64
2021/12/30 07:47:50;;;;;;;4.25;1.90;;;;;;;11.43;84.47;101309.94;5085960;28;20113;-64
2021/12/30 07:50:18;;;;;;;2.13;1.60;;;;;;;11.40;84.71;101305.81;5085134;28;20056;-65
2021/12/30 07:52:46;;;;;;;3.05;1.85;;;;;;;11.43;84.44;101313.47;5083538;28;20068;-64
2021/12/30 07:55:14;;;;;;;3.80;1.92;;;;;;;11.45;84.79;101318.63;5065200;28;20116;-64
2021/12/30 07:57:42;;;;;;;2.92;1.58;;;;;;;11.44;84.84;101312.44;5085326;28;20411;-64
2021/12/30 08:00:12;;;;;;;2.67;1.95;;;;;;;11.45;84.82;101314.06;5085129;28;20064;-64
2021/12/30 08:02:42;;;;;;;2.28;1.75;;;;;;;11.46;84.85;101322.97;5085212;28;20128;-64
2021/12/30 08:05:11;;;;;;;4.38;1.95;;;;;;;11.47;84.76;101328.16;5085128;28;20460;-64
2021/12/30 08:07:38;;;;;;;3.28;1.73;;;;;;;11.47;84.83;101312.00;5083929;28;20481;-64
2021/12/30 08:10:12;;;;;;;3.00;1.90;;;;;;;11.47;84.81;101306.63;5084842;28;20052;-64
2021/12/30 08:12:41;;;;;;;3.90;2.15;;;;;;;11.48;84.73;101310.97;5085084;28;20614;-64
2021/12/30 08:15:10;;;;;;;3.22;2.17;;;;;;;11.47;84.63;101303.09;5085091;28;20056;-64
2021/12/30 08:17:38;;;;;;;4.35;2.30;;;;;;;11.47;84.34;101312.00;5085555;28;20148;-64
2021/12/30 08:20:10;;;;;;;2.70;1.63;;;;;;;11.45;84.52;101316.78;5083847;28;20057;-65
2021/12/30 08:22:38;;;;;;;3.05;1.88;;;;;;;11.47;84.67;101338.91;5085108;28;20088;-64
2021/12/30 08:25:08;;;;;;;4.72;1.83;;;;;;;11.48;84.60;101331.66;5078086;28;20056;-65
2021/12/30 08:27:35;;;;;;;3.45;1.90;;;;;;;11.49;84.36;101338.69;5084648;28;20041;-64
2021/12/30 08:30:06;;;;;;;3.85;1.70;;;;;;;11.49;84.60;101336.84;5084876;28;20040;-64
2021/12/30 08:32:34;;;;;;;2.85;1.60;;;;;;;11.49;84.57;101328.75;5085086;28;20090;-64
2021/12/30 08:35:02;;;;;;;2.97;1.58;;;;;;;11.49;84.39;101331.44;5084313;28;20094;-64
2021/12/30 08:37:32;;;;;;;1.70;1.50;;;;;;;11.50;84.51;101337.66;5084880;28;20198;-64
2021/12/30 08:40:01;;;;;;;3.33;1.73;;;;;;;11.50;84.43;101340.34;5084190;28;20075;-64
2021/12/30 08:42:30;;;;;;;2.60;1.75;;;;;;;11.49;84.41;101336.00;5084146;28;20075;-64
2021/12/30 08:45:01;;;;;;;1.95;1.48;;;;;;;11.50;84.71;101345.72;5071097;28;20084;-64
2021/12/30 08:47:30;;;;;;;3.67;1.95;;;;;;;11.49;84.40;101336.84;5084469;28;20490;-64
2021/12/30 08:49:59;;;;;;;2.65;1.60;;;;;;;11.50;84.19;101340.34;5084319;28;20078;-64
2021/12/30 08:52:28;;;;;;;3.72;1.40;;;;;;;11.51;84.42;101353.59;5084648;28;20545;-64
2021/12/30 08:55:04;;;;;;;2.10;1.65;;;;;;;11.51;84.15;101350.06;5061764;28;20064;-64
2021/12/30 08:57:33;;;;;;;5.07;1.60;;;;;;;11.51;84.04;101350.06;5084023;28;20044;-64
2021/12/30 09:00:01;;;;;;;2.05;1.50;;;;;;;11.51;84.06;101377.81;5084267;28;20051;-64
2021/12/30 09:02:28;;;;;;;2.47;1.40;;;;;;;11.52;84.50;101387.53;5084110;28;20056;-64
2021/12/30 09:04:56;;;;;;;2.83;1.40;;;;;;;11.53;84.29;101394.56;5083978;28;20052;-64
2021/12/30 09:07:24;;;;;;;4.25;1.60;;;;;;;11.54;84.30;101393.53;5082825;28;20055;-64
2021/12/30 09:09:52;;;;;;;2.20;1.40;;;;;;;11.54;84.46;101401.63;5083705;28;20080;-64
2021/12/30 09:12:22;;;;;;;4.93;1.40;;;;;;;11.56;84.32;101404.91;5083366;28;20048;-64
2021/12/30 09:15:12;;;;;;;2.63;1.65;;;;;;;11.56;84.35;101396.84;5083966;28;20394;-64
2021/12/30 09:17:40;;;;;;;2.80;1.80;;;;;;;11.58;84.13;101383.16;5084213;28;20037;-64
2021/12/30 09:20:10;;;;;;;3.47;1.80;;;;;;;11.59;84.26;101384.81;5083457;28;20055;-64
2021/12/30 09:22:38;;;;;;;4.10;1.60;;;;;;;11.58;84.49;101397.44;5083630;28;20099;-64
2021/12/30 09:25:08;;;;;;;5.53;1.95;;;;;;;11.59;84.25;101398.28;5078490;28;20057;-64
2021/12/30 09:27:38;;;;;;;3.25;1.80;;;;;;;11.59;84.20;101396.41;5083696;28;20049;-64
2021/12/30 09:30:09;;;;;;;4.30;1.58;;;;;;;11.61;84.19;101415.03;5083689;28;20482;-64
2021/12/30 09:32:40;;;;;;;3.13;1.50;;;;;;;11.60;84.15;101403.44;5082730;28;20076;-64
2021/12/30 09:35:09;;;;;;;5.15;1.80;;;;;;;11.61;84.30;101406.97;5083318;28;20064;-64
2021/12/30 09:37:37;;;;;;;3.40;1.50;;;;;;;11.58;83.94;101405.53;5083692;28;20470;-64
2021/12/30 09:40:08;;;;;;;3.10;1.73;;;;;;;11.61;84.03;101415.03;5083291;28;20140;-64
2021/12/30 09:42:39;;;;;;;3.95;2.10;;;;;;;11.61;83.99;101418.56;5082956;28;20090;-64
2021/12/30 09:45:08;;;;;;;5.90;1.60;;;;;;;11.63;84.10;101421.03;5057848;28;20102;-64
2021/12/30 09:47:37;;;;;;;3.42;1.63;;;;;;;11.63;84.00;101429.94;5083470;28;20056;-64
2021/12/30 09:50:05;;;;;;;6.13;1.90;;;;;;;11.64;84.10;101425.38;5083015;28;20052;-64
2021/12/30 09:52:33;;;;;;;7.80;2.03;;;;;;;11.63;84.41;101421.88;5083323;28;20053;-64
2021/12/30 09:55:00;;;;;;;6.07;2.30;;;;;;;11.65;84.27;101433.25;5061522;28;20108;-65
2021/12/30 09:57:28;;;;;;;5.97;2.30;;;;;;;11.66;84.14;101432.19;5082852;28;20076;-65
2021/12/30 09:59:57;;;;;;;5.68;1.85;;;;;;;11.66;83.97;101426.00;5083033;28;20056;-64
2021/12/30 10:02:25;;;;;;;2.42;1.40;;;;;;;11.66;84.07;101436.75;5083225;28;20076;-65
2021/12/30 10:05:04;;;;;;;6.32;1.83;;;;;;;11.67;83.86;101423.09;5082772;28;20147;-65
2021/12/30 10:07:32;;;;;;;9.15;2.35;;;;;;;11.68;83.73;101423.91;5081041;28;20045;-64
2021/12/30 10:10:03;;;;;;;8.20;2.00;;;;;;;11.69;83.98;101434.47;5082585;28;20068;-65
2021/12/30 10:12:35;;;;;;;8.75;2.35;;;;;;;11.69;83.95;101436.34;5082374;28;20509;-65
2021/12/30 10:15:06;;;;;;;7.85;2.15;;;;;;;11.69;84.00;101433.63;5083149;28;20108;-64
2021/12/30 10:17:34;;;;;;;10.25;2.20;;;;;;;11.69;83.85;101423.69;5083017;28;20375;-64
2021/12/30 10:20:17;;;;;;;9.65;1.95;;;;;;;11.70;84.07;101436.13;5082159;28;20055;-64
2021/12/30 10:22:47;;;;;;;6.88;2.45;;;;;;;11.67;83.84;101430.34;5082832;28;20087;-65
2021/12/30 10:25:30;;;;;;;9.75;2.40;;;;;;;11.70;83.86;101430.72;5075399;28;20426;-64
2021/12/30 10:28:18;;;;;;;12.88;2.78;;;;;;;11.72;83.71;101433.22;5082109;28;20133;-65
2021/12/30 10:30:49;;;;;;;8.45;2.15;;;;;;;11.72;83.85;101428.66;5082315;28;20060;-65
2021/12/30 10:33:20;;;;;;;11.25;2.38;;;;;;;11.72;83.92;101434.03;5082447;28;20517;-64
2021/12/30 10:35:48;;;;;;;10.85;3.00;;;;;;;11.72;84.12;101431.34;5082214;28;20072;-64
2021/12/30 10:38:16;;;;;;;15.65;2.78;;;;;;;11.74;83.75;101431.13;5066000;28;20052;-65
2021/12/30 10:40:48;;;;;;;9.50;2.83;;;;;;;11.74;83.83;101434.66;5071831;28;20048;-64
2021/12/30 10:43:24;;;;;;;6.45;2.28;;;;;;;11.74;83.89;101429.25;5076829;28;20072;-65
2021/12/30 10:46:12;;;;;;;8.13;1.75;;;;;;;11.77;83.94;101432.56;5075786;28;20052;-65
2021/12/30 10:48:55;;;;;;;12.50;2.78;;;;;;;11.78;84.07;101427.00;5082486;28;20045;-64
2021/12/30 10:51:26;;;;;;;9.80;3.13;;;;;;;11.79;84.05;101430.50;5081737;28;20131;-64
2021/12/30 10:53:56;;;;;;;9.40;2.70;;;;;;;11.79;83.81;101431.34;5062271;28;20073;-64
2021/12/30 10:56:36;;;;;;;10.95;2.65;;;;;;;11.81;83.89;101439.22;5081517;28;20087;-64
2021/12/30 10:59:16;;;;;;;13.45;3.05;;;;;;;11.82;83.95;101440.84;5082356;28;20040;-64
2021/12/30 11:01:47;;;;;;;10.52;2.50;;;;;;;11.82;83.91;101433.59;5082178;28;20476;-65
2021/12/30 11:04:16;;;;;;;12.85;2.47;;;;;;;11.83;83.90;101437.13;5082274;28;20049;-64
2021/12/30 11:06:46;;;;;;;10.60;2.50;;;;;;;11.82;84.03;101435.47;5081795;28;20071;-64
2021/12/30 11:09:17;;;;;;;9.15;2.38;;;;;;;11.84;83.85;101438.78;5080296;28;20080;-65
2021/12/30 11:11:49;;;;;;;14.45;4.10;;;;;;;11.84;83.99;101438.78;5081502;28;20063;-64
2021/12/30 11:14:19;;;;;;;11.65;2.53;;;;;;;11.85;83.81;101445.81;5082350;28;20057;-65
2021/12/30 11:17:10;;;;;;;10.80;2.47;;;;;;;11.85;83.83;101443.94;5082019;28;20606;-65
2021/12/30 11:19:40;;;;;;;10.82;2.75;;;;;;;11.85;83.64;101438.56;5082104;28;20071;-64
2021/12/30 11:22:12;;;;;;;10.73;2.92;;;;;;;11.86;83.78;101440.22;5081755;28;20076;-64
2021/12/30 11:24:40;;;;;;;10.57;2.30;;;;;;;11.80;83.83;101426.78;5078589;28;20079;-64
2021/12/30 11:27:10;;;;;;;11.57;2.60;;;;;;;11.89;83.54;101436.25;5076900;28;20491;-64
2021/12/30 11:29:41;;;;;;;8.05;2.65;;;;;;;11.89;83.65;101431.69;5061893;28;20060;-64
2021/12/30 11:32:13;;;;;;;9.32;2.65;;;;;;;11.88;83.65;101431.91;5069352;28;20079;-64